Time;durP1;ratioP1;P1;durP2;ratioP2;P2;SDS_P1;SDS_P2;PMS_P1;PMS_P2;Temp;Humidity;BMP_temperature;BMP_pressure;BME280_temperature;BME280_humidity;BME280_pressure;Samples;Min_cycle;Max_cycle;Signal;HPM_P1;HPM_P2
2023/11/06 00:02:08;;;;;;;3.38;0.90;;;9.40;72.50;;;;;;5032673;28;20108;-75
2023/11/06 00:04:35;;;;;;;4.28;1.10;;;9.30;72.70;;;;;;5032187;28;20397;-74
2023/11/06 00:07:00;;;;;;;4.93;1.27;;;9.30;72.10;;;;;;5032073;28;20433;-75
2023/11/06 00:09:26;;;;;;;6.78;1.38;;;9.30;71.90;;;;;;5033356;28;20033;-75
2023/11/06 00:11:52;;;;;;;6.10;1.33;;;9.30;72.20;;;;;;5032187;28;20382;-75
2023/11/06 00:14:17;;;;;;;5.00;0.82;;;9.40;72.00;;;;;;5032377;28;20025;-76
2023/11/06 00:16:45;;;;;;;6.13;1.17;;;9.40;71.80;;;;;;5032014;28;20124;-75
2023/11/06 00:19:12;;;;;;;4.18;0.70;;;9.30;72.40;;;;;;5032082;28;20113;-76
2023/11/06 00:21:40;;;;;;;5.38;1.20;;;9.30;73.20;;;;;;5031971;28;20064;-77
2023/11/06 00:24:07;;;;;;;3.17;0.60;;;9.20;74.20;;;;;;5032905;28;20053;-76
2023/11/06 00:26:32;;;;;;;5.65;1.15;;;9.20;74.60;;;;;;5033089;28;20389;-75
2023/11/06 00:28:58;;;;;;;10.75;1.45;;;9.10;74.90;;;;;;5032998;28;20104;-76
2023/11/06 00:31:24;;;;;;;3.95;0.70;;;9.00;75.20;;;;;;5032464;28;20591;-75
2023/11/06 00:33:51;;;;;;;9.20;1.08;;;9.10;74.90;;;;;;5031842;28;20022;-76
2023/11/06 00:36:18;;;;;;;4.32;0.77;;;9.00;75.00;;;;;;5032870;28;20111;-76
2023/11/06 00:38:46;;;;;;;5.07;0.90;;;9.00;74.90;;;;;;5031777;28;20021;-76
2023/11/06 00:41:12;;;;;;;7.30;1.00;;;9.00;75.30;;;;;;5032814;28;20021;-76
2023/11/06 00:43:38;;;;;;;6.63;0.85;;;9.00;76.20;;;;;;5032906;28;20112;-78
2023/11/06 00:46:03;;;;;;;4.25;0.70;;;9.00;75.80;;;;;;5032739;28;20026;-74
2023/11/06 00:48:29;;;;;;;3.35;0.70;;;9.00;74.50;;;;;;5031596;28;20362;-74
2023/11/06 00:50:55;;;;;;;2.88;0.85;;;9.00;75.70;;;;;;5031615;28;20044;-76
2023/11/06 00:53:20;;;;;;;4.57;0.77;;;9.00;75.70;;;;;;5032688;28;20021;-76
2023/11/06 00:55:46;;;;;;;5.07;0.80;;;9.00;76.30;;;;;;5032754;28;20037;-75
2023/11/06 00:58:11;;;;;;;3.28;0.68;;;8.90;76.30;;;;;;5031487;28;20056;-75
2023/11/06 01:00:37;;;;;;;3.10;1.10;;;8.90;76.60;;;;;;5031387;28;20057;-75
2023/11/06 01:03:03;;;;;;;2.20;0.80;;;8.90;77.70;;;;;;5031361;28;20050;-75
2023/11/06 01:05:31;;;;;;;5.15;0.90;;;8.80;77.90;;;;;;5031109;28;20439;-75
2023/11/06 01:07:57;;;;;;;3.13;0.70;;;8.70;78.70;;;;;;5032504;28;20104;-75
2023/11/06 01:10:24;;;;;;;2.40;0.60;;;8.70;78.00;;;;;;5032289;28;20490;-75
2023/11/06 01:12:51;;;;;;;1.83;0.45;;;8.70;76.30;;;;;;5032933;28;20032;-75
2023/11/06 01:15:17;;;;;;;3.47;0.50;;;8.70;75.70;;;;;;5035593;28;20030;-74
2023/11/06 01:17:43;;;;;;;4.00;0.60;;;8.70;76.20;;;;;;5035383;28;20025;-76
2023/11/06 01:20:10;;;;;;;3.47;0.52;;;8.60;75.80;;;;;;5035916;28;20037;-75
2023/11/06 01:22:36;;;;;;;1.33;0.45;;;8.60;75.90;;;;;;5035233;28;20032;-77
2023/11/06 01:25:02;;;;;;;5.15;0.57;;;8.60;76.00;;;;;;5018632;28;20030;-74
2023/11/06 01:27:28;;;;;;;4.43;0.60;;;8.60;75.70;;;;;;5034570;28;20160;-74
2023/11/06 01:29:53;;;;;;;2.97;0.65;;;8.60;76.00;;;;;;5036295;28;20382;-75
2023/11/06 01:32:20;;;;;;;3.63;0.82;;;8.60;75.40;;;;;;5035803;28;20061;-75
2023/11/06 01:34:47;;;;;;;4.47;0.95;;;8.60;75.50;;;;;;5035180;28;20032;-75
2023/11/06 01:37:13;;;;;;;5.22;1.15;;;8.60;75.30;;;;;;5035205;28;20052;-75
2023/11/06 01:39:38;;;;;;;3.13;0.65;;;8.60;75.60;;;;;;5034988;28;20071;-74
2023/11/06 01:42:04;;;;;;;6.80;1.20;;;8.60;75.40;;;;;;5034884;28;20039;-75
2023/11/06 01:44:30;;;;;;;5.78;1.00;;;8.60;75.20;;;;;;5034816;28;20470;-75
2023/11/06 01:46:56;;;;;;;5.60;0.77;;;8.60;75.60;;;;;;5049227;28;20032;-74
2023/11/06 01:49:22;;;;;;;3.17;0.85;;;8.60;75.20;;;;;;5054702;28;20079;-74
2023/11/06 01:51:49;;;;;;;3.85;0.80;;;8.70;75.40;;;;;;5055950;28;20031;-74
2023/11/06 01:54:17;;;;;;;3.95;0.73;;;8.70;75.60;;;;;;5054302;28;20056;-74
2023/11/06 01:56:43;;;;;;;6.10;1.05;;;8.70;75.90;;;;;;5054852;28;20120;-74
2023/11/06 01:59:09;;;;;;;5.30;0.82;;;8.70;76.10;;;;;;5055473;28;20025;-75
2023/11/06 02:01:38;;;;;;;3.72;1.02;;;8.70;76.30;;;;;;5054158;28;20025;-74
2023/11/06 02:04:06;;;;;;;5.53;1.00;;;8.70;76.10;;;;;;5054700;28;20028;-75
2023/11/06 02:06:33;;;;;;;3.60;0.85;;;8.70;76.60;;;;;;5055473;28;20021;-74
2023/11/06 02:08:59;;;;;;;5.05;1.08;;;8.70;76.80;;;;;;5054280;28;20055;-74
2023/11/06 02:11:24;;;;;;;6.20;1.15;;;8.60;76.90;;;;;;5054161;28;20120;-76
2023/11/06 02:13:50;;;;;;;3.95;0.70;;;8.60;76.60;;;;;;5054134;28;20493;-76
2023/11/06 02:16:16;;;;;;;5.72;0.73;;;8.60;77.00;;;;;;5054045;28;20033;-76
2023/11/06 02:18:41;;;;;;;3.70;0.88;;;8.70;76.50;;;;;;5055414;28;20025;-76
2023/11/06 02:21:07;;;;;;;2.25;0.70;;;8.70;76.70;;;;;;5055071;28;20028;-75
2023/11/06 02:23:33;;;;;;;5.53;0.88;;;8.60;77.40;;;;;;5054004;28;20025;-77
2023/11/06 02:25:59;;;;;;;6.10;0.90;;;8.60;77.50;;;;;;5054557;28;20120;-77
2023/11/06 02:28:25;;;;;;;6.88;0.82;;;8.60;77.70;;;;;;5053973;28;20033;-77
2023/11/06 02:30:54;;;;;;;5.28;0.60;;;8.60;78.80;;;;;;5053844;28;20025;-77
2023/11/06 02:33:19;;;;;;;6.95;0.93;;;8.60;78.80;;;;;;5053683;28;20048;-78
2023/11/06 02:35:48;;;;;;;4.20;1.02;;;8.50;79.70;;;;;;5054559;28;20120;-76
2023/11/06 02:38:13;;;;;;;5.82;0.80;;;8.50;81.00;;;;;;5053866;28;20462;-76
2023/11/06 02:40:39;;;;;;;8.13;0.93;;;8.40;80.60;;;;;;5054032;28;20048;-76
2023/11/06 02:43:05;;;;;;;4.57;0.80;;;8.50;80.70;;;;;;5061958;28;20029;-75
2023/11/06 02:45:30;;;;;;;7.10;1.42;;;8.50;79.80;;;;;;5055041;28;20056;-75
2023/11/06 02:47:56;;;;;;;3.35;0.95;;;8.50;80.30;;;;;;5053829;28;20108;-76
2023/11/06 02:50:22;;;;;;;6.32;1.00;;;8.50;80.00;;;;;;5053615;28;20051;-75
2023/11/06 02:53:00;;;;;;;6.40;1.02;;;8.50;79.60;;;;;;5053340;28;20049;-77
2023/11/06 02:55:32;;;;;;;4.40;1.17;;;8.50;78.50;;;;;;5053697;28;20055;-76
2023/11/06 02:57:58;;;;;;;5.70;1.00;;;8.60;78.20;;;;;;5053620;28;20469;-75
2023/11/06 03:00:31;;;;;;;7.28;1.00;;;8.70;77.30;;;;;;5053248;28;20025;-75
2023/11/06 03:02:57;;;;;;;7.15;1.17;;;8.70;76.90;;;;;;5052716;28;20033;-75
2023/11/06 03:05:23;;;;;;;3.65;0.75;;;8.80;77.00;;;;;;5054478;28;20472;-76
2023/11/06 03:07:54;;;;;;;1.52;0.70;;;8.80;76.70;;;;;;5029125;23;20057;-75
2023/11/06 03:10:38;;;;;;;7.22;0.90;;;8.80;76.80;;;;;;5014750;28;20022;-77
2023/11/06 03:13:55;;;;;;;;;;;;;;;;;;;;;
2023/11/06 03:16:35;;;;;;;5.65;0.98;;;8.80;77.30;;;;;;5014351;28;20056;-75
2023/11/06 03:19:01;;;;;;;5.05;0.90;;;8.80;77.80;;;;;;5013282;28;20033;-77
2023/11/06 03:21:26;;;;;;;3.85;1.00;;;8.70;77.70;;;;;;5013590;28;20037;-77
2023/11/06 03:23:52;;;;;;;3.55;1.02;;;8.70;77.70;;;;;;5013375;28;20353;-76
2023/11/06 03:26:18;;;;;;;1.15;0.40;;;8.80;77.90;;;;;;5013430;28;20030;-76
2023/11/06 03:28:43;;;;;;;4.32;0.60;;;8.70;77.30;;;;;;5013426;28;20518;-75
2023/11/06 03:31:10;;;;;;;3.03;0.85;;;8.70;77.70;;;;;;4996954;28;20088;-75
2023/11/06 03:33:35;;;;;;;3.30;0.77;;;8.70;78.00;;;;;;5013161;28;20462;-75
2023/11/06 03:36:03;;;;;;;4.40;0.70;;;8.70;77.60;;;;;;5029461;28;20045;-75
2023/11/06 03:38:28;;;;;;;1.50;0.60;;;8.70;77.20;;;;;;5012770;28;20018;-74
2023/11/06 03:40:55;;;;;;;2.75;0.80;;;8.70;77.30;;;;;;5013133;28;20045;-75
2023/11/06 03:43:20;;;;;;;2.53;0.60;;;8.70;76.90;;;;;;5013165;28;20095;-76
2023/11/06 03:45:46;;;;;;;2.10;0.75;;;8.70;77.40;;;;;;5012814;28;20518;-76
2023/11/06 03:48:12;;;;;;;3.50;0.40;;;8.70;76.90;;;;;;5013032;28;20121;-76
2023/11/06 03:50:42;;;;;;;3.38;0.70;;;8.70;76.80;;;;;;5029418;28;20459;-75
2023/11/06 03:53:13;;;;;;;3.25;0.80;;;8.80;77.00;;;;;;5012902;28;20079;-75
2023/11/06 03:55:39;;;;;;;2.85;0.63;;;8.70;78.20;;;;;;5012908;28;20135;-76
2023/11/06 03:58:04;;;;;;;2.97;0.65;;;8.70;79.20;;;;;;4996391;28;20494;-75
2023/11/06 04:00:31;;;;;;;6.55;0.98;;;8.60;80.50;;;;;;5012799;28;20022;-76
2023/11/06 04:02:57;;;;;;;1.73;0.60;;;8.60;80.90;;;;;;5012514;28;20034;-76
2023/11/06 04:05:22;;;;;;;1.77;0.50;;;8.50;81.50;;;;;;5012660;28;20045;-77
2023/11/06 04:07:48;;;;;;;4.72;0.70;;;8.50;81.60;;;;;;5012323;28;20127;-75
2023/11/06 04:10:15;;;;;;;2.67;0.70;;;8.40;82.00;;;;;;4995909;28;20034;-75
2023/11/06 04:12:41;;;;;;;4.32;0.65;;;8.40;81.20;;;;;;5012308;28;20032;-75
2023/11/06 04:15:07;;;;;;;2.97;0.50;;;8.40;80.80;;;;;;5012427;28;20061;-75
2023/11/06 04:17:33;;;;;;;4.10;0.52;;;8.40;81.00;;;;;;5011845;28;20034;-74
2023/11/06 04:19:58;;;;;;;2.53;0.43;;;8.40;80.70;;;;;;5011829;28;20036;-76
2023/11/06 04:22:24;;;;;;;1.63;0.50;;;8.40;79.70;;;;;;5012392;28;20492;-76
2023/11/06 04:24:50;;;;;;;3.17;0.57;;;8.40;79.90;;;;;;5013080;28;20075;-76
2023/11/06 04:27:15;;;;;;;2.75;0.52;;;8.40;79.70;;;;;;5012459;28;20468;-75
2023/11/06 04:29:42;;;;;;;2.63;0.60;;;8.40;79.60;;;;;;5013181;28;20402;-75
2023/11/06 04:32:08;;;;;;;2.10;0.57;;;8.40;80.30;;;;;;5011805;28;20431;-75
2023/11/06 04:34:33;;;;;;;5.00;0.90;;;8.40;79.50;;;;;;5011749;28;20172;-75
2023/11/06 04:37:00;;;;;;;2.28;0.82;;;8.40;79.30;;;;;;5012096;28;20091;-75
2023/11/06 04:39:26;;;;;;;2.63;0.45;;;8.40;79.60;;;;;;5012295;28;20029;-75
2023/11/06 04:41:52;;;;;;;3.95;0.82;;;8.40;79.20;;;;;;5012151;28;20029;-74
2023/11/06 04:44:17;;;;;;;3.30;0.85;;;8.50;79.30;;;;;;5011499;28;20030;-74
2023/11/06 04:46:43;;;;;;;4.45;0.90;;;8.50;78.30;;;;;;5012160;28;20113;-76
2023/11/06 04:49:08;;;;;;;3.67;0.80;;;8.50;78.20;;;;;;5011293;28;20339;-76
2023/11/06 04:51:34;;;;;;;3.05;0.80;;;8.60;77.80;;;;;;5011458;28;20084;-76
2023/11/06 04:54:00;;;;;;;3.13;0.50;;;8.60;77.20;;;;;;5012132;28;20435;-76
2023/11/06 04:56:25;;;;;;;2.85;0.95;;;8.70;76.30;;;;;;5012184;28;20041;-76
2023/11/06 04:58:53;;;;;;;3.83;0.43;;;8.70;76.40;;;;;;5013079;28;20028;-77
2023/11/06 05:01:18;;;;;;;7.57;0.80;;;8.70;76.60;;;;;;5011203;28;20061;-77
2023/11/06 05:03:44;;;;;;;2.72;0.60;;;8.70;76.20;;;;;;5013323;28;20105;-76
2023/11/06 05:06:32;;;;;;;6.05;0.90;;;8.70;76.60;;;;;;5028443;28;20475;-76
2023/11/06 05:08:58;;;;;;;4.78;0.70;;;8.70;76.60;;;;;;5012658;28;20042;-76
2023/11/06 05:11:23;;;;;;;3.03;1.10;;;8.70;77.40;;;;;;5011927;28;20101;-74
2023/11/06 05:13:51;;;;;;;4.15;0.88;;;8.70;76.30;;;;;;5011913;28;20081;-76
2023/11/06 05:16:22;;;;;;;4.35;0.93;;;8.70;77.00;;;;;;5026945;28;20025;-74
2023/11/06 05:18:47;;;;;;;2.72;0.88;;;8.70;77.20;;;;;;5014547;28;20124;-74
2023/11/06 05:21:23;;;;;;;3.13;0.77;;;8.70;77.10;;;;;;5031113;28;20450;-74
2023/11/06 05:23:50;;;;;;;3.65;0.95;;;8.70;76.20;;;;;;5031305;28;20030;-73
2023/11/06 05:26:16;;;;;;;3.40;0.80;;;8.70;76.30;;;;;;5031477;28;20420;-76
2023/11/06 05:28:43;;;;;;;4.63;0.93;;;8.70;76.50;;;;;;5031530;28;20462;-77
2023/11/06 05:31:09;;;;;;;5.95;1.30;;;8.70;76.70;;;;;;5031423;28;20406;-78
2023/11/06 05:33:35;;;;;;;4.13;0.90;;;8.70;76.30;;;;;;5031216;28;20029;-75
2023/11/06 05:36:02;;;;;;;5.63;2.70;;;8.60;76.90;;;;;;5031273;28;20597;-76
2023/11/06 05:38:28;;;;;;;3.47;1.00;;;8.60;77.20;;;;;;5014685;28;20034;-76
2023/11/06 05:40:53;;;;;;;6.75;0.80;;;8.60;77.30;;;;;;5031489;28;20029;-75
2023/11/06 05:43:19;;;;;;;3.03;0.55;;;8.50;76.80;;;;;;5031473;28;20032;-78
2023/11/06 05:45:44;;;;;;;2.78;0.80;;;8.50;77.60;;;;;;5031405;28;20028;-77
2023/11/06 05:48:10;;;;;;;3.45;0.85;;;8.60;77.10;;;;;;5031552;28;20025;-77
2023/11/06 05:50:36;;;;;;;3.35;0.70;;;8.50;77.20;;;;;;5030943;28;20478;-76
2023/11/06 05:53:02;;;;;;;4.47;0.77;;;8.50;77.20;;;;;;5031456;28;20029;-76
2023/11/06 05:55:28;;;;;;;3.47;0.82;;;8.50;77.40;;;;;;5031263;28;20470;-77
2023/11/06 05:57:53;;;;;;;4.35;1.10;;;8.40;77.20;;;;;;5030750;28;20344;-77
2023/11/06 06:00:20;;;;;;;5.07;1.23;;;8.50;76.90;;;;;;5032458;28;20485;-77
2023/11/06 06:02:45;;;;;;;4.65;1.02;;;8.40;77.10;;;;;;5034882;28;20512;-76
2023/11/06 06:05:11;;;;;;;4.32;0.70;;;8.50;77.10;;;;;;5034834;28;20078;-77
2023/11/06 06:07:37;;;;;;;1.67;0.57;;;8.50;77.40;;;;;;5034533;28;20441;-74
2023/11/06 06:10:04;;;;;;;1.30;0.40;;;8.50;77.50;;;;;;5034342;28;20029;-75
2023/11/06 06:12:32;;;;;;;4.18;1.00;;;8.40;77.10;;;;;;5034666;28;20026;-74
2023/11/06 06:14:59;;;;;;;3.70;1.00;;;8.50;78.10;;;;;;5036131;28;20025;-75
2023/11/06 06:17:25;;;;;;;2.97;0.88;;;8.40;77.60;;;;;;5037287;28;20040;-75
2023/11/06 06:19:51;;;;;;;2.92;0.70;;;8.40;77.70;;;;;;5034349;28;20022;-76
2023/11/06 06:22:17;;;;;;;4.88;1.02;;;8.40;77.30;;;;;;5034152;28;20028;-75
2023/11/06 06:24:45;;;;;;;5.70;0.90;;;8.40;77.50;;;;;;5034251;28;20028;-74
2023/11/06 06:27:11;;;;;;;5.13;1.10;;;8.40;77.10;;;;;;5034361;28;20038;-77
2023/11/06 06:29:37;;;;;;;3.97;0.77;;;8.40;77.00;;;;;;5034937;28;20114;-74
2023/11/06 06:32:03;;;;;;;3.33;0.88;;;8.40;76.80;;;;;;5017423;28;20117;-75
2023/11/06 06:34:28;;;;;;;10.60;4.82;;;8.40;77.20;;;;;;5033972;28;20110;-74
2023/11/06 06:36:54;;;;;;;4.15;0.95;;;8.50;77.20;;;;;;5036032;28;20462;-73
2023/11/06 06:39:21;;;;;;;4.45;0.82;;;8.50;76.90;;;;;;5035242;28;20097;-74
2023/11/06 06:41:46;;;;;;;5.03;0.70;;;8.50;76.60;;;;;;5038299;28;20037;-74
2023/11/06 06:44:12;;;;;;;3.80;1.00;;;8.60;76.20;;;;;;5034845;28;20061;-75
2023/11/06 06:46:38;;;;;;;4.22;0.82;;;8.60;75.70;;;;;;5034326;28;20439;-73
2023/11/06 06:49:03;;;;;;;5.13;0.77;;;8.60;75.40;;;;;;5035057;28;20064;-77
2023/11/06 06:51:29;;;;;;;2.88;0.60;;;8.70;75.20;;;;;;5035043;28;20026;-78
2023/11/06 06:53:54;;;;;;;5.95;1.27;;;8.70;75.00;;;;;;5033884;28;20536;-74
2023/11/06 06:56:20;;;;;;;4.63;0.93;;;8.80;74.60;;;;;;5034687;28;20121;-73
2023/11/06 06:58:46;;;;;;;3.13;0.75;;;8.80;74.40;;;;;;5034725;28;20053;-73
2023/11/06 07:01:13;;;;;;;4.18;1.25;;;8.90;74.30;;;;;;5034778;28;20509;-73
2023/11/06 07:03:38;;;;;;;5.38;0.80;;;8.90;73.80;;;;;;5033963;28;20470;-73
2023/11/06 07:06:06;;;;;;;2.30;0.77;;;9.00;72.50;;;;;;5035306;28;20029;-74
2023/11/06 07:08:32;;;;;;;4.55;1.45;;;9.00;72.50;;;;;;5034663;28;20044;-74
2023/11/06 07:10:58;;;;;;;5.15;1.42;;;9.10;72.40;;;;;;5032771;28;20025;-74
2023/11/06 07:13:23;;;;;;;6.68;1.25;;;9.10;72.80;;;;;;5034628;28;20021;-73
2023/11/06 07:15:49;;;;;;;4.45;0.75;;;9.10;72.50;;;;;;5034546;28;20545;-73
2023/11/06 07:18:14;;;;;;;3.00;0.80;;;9.10;73.10;;;;;;5034381;28;20370;-74
2023/11/06 07:20:40;;;;;;;3.20;0.60;;;9.10;73.20;;;;;;5033107;28;20017;-75
2023/11/06 07:23:06;;;;;;;4.03;0.73;;;9.10;73.20;;;;;;5034276;28;20060;-74
2023/11/06 07:25:31;;;;;;;2.42;0.90;;;9.20;72.80;;;;;;5034202;28;20053;-73
2023/11/06 07:27:57;;;;;;;4.68;0.82;;;9.20;72.90;;;;;;5034374;28;20057;-74
2023/11/06 07:30:25;;;;;;;4.43;0.80;;;9.20;72.50;;;;;;5033506;28;20075;-78
2023/11/06 07:32:51;;;;;;;2.28;0.50;;;9.20;73.10;;;;;;5035061;28;20025;-75
2023/11/06 07:35:16;;;;;;;3.28;0.90;;;9.20;72.80;;;;;;5035076;28;20072;-76
2023/11/06 07:37:42;;;;;;;1.67;0.40;;;9.20;73.60;;;;;;5036811;28;20104;-76
2023/11/06 07:40:09;;;;;;;2.30;0.90;;;9.50;76.20;;;;;;5036936;28;20048;-76
2023/11/06 07:42:34;;;;;;;2.97;0.73;;;9.80;72.50;;;;;;5034390;28;20088;-78
2023/11/06 07:45:00;;;;;;;1.85;0.65;;;10.00;73.00;;;;;;5034177;28;20030;-78
2023/11/06 07:47:26;;;;;;;4.30;0.88;;;10.20;70.10;;;;;;5034634;28;20044;-79
2023/11/06 07:49:52;;;;;;;1.00;0.50;;;10.30;70.50;;;;;;5034418;28;20025;-78
2023/11/06 07:52:19;;;;;;;1.92;0.70;;;10.20;69.10;;;;;;5034797;28;20025;-78
2023/11/06 07:54:44;;;;;;;1.00;0.57;;;10.10;70.40;;;;;;5034317;28;20347;-76
2023/11/06 07:57:11;;;;;;;3.40;0.82;;;10.00;70.40;;;;;;5032524;28;20045;-76
2023/11/06 07:59:42;;;;;;;2.20;0.70;;;10.10;71.50;;;;;;5033384;28;20427;-78
2023/11/06 08:02:10;;;;;;;3.33;0.80;;;10.30;71.90;;;;;;5031304;28;20346;-79
2023/11/06 08:04:38;;;;;;;2.60;0.60;;;10.50;70.70;;;;;;5032796;28;20032;-79
2023/11/06 08:07:04;;;;;;;3.63;0.50;;;10.40;69.40;;;;;;5032562;28;20041;-75
2023/11/06 08:09:29;;;;;;;1.73;0.60;;;10.10;70.90;;;;;;5033075;28;20032;-78
2023/11/06 08:11:55;;;;;;;5.70;0.95;;;10.00;70.60;;;;;;5032983;28;20052;-76
2023/11/06 08:14:20;;;;;;;1.27;0.75;;;9.90;71.20;;;;;;5032260;28;20023;-76
2023/11/06 08:16:47;;;;;;;6.07;2.22;;;9.90;71.80;;;;;;5030888;28;20044;-79
2023/11/06 08:19:12;;;;;;;2.42;0.95;;;9.80;72.00;;;;;;5032646;28;20497;-76
2023/11/06 08:21:38;;;;;;;2.83;0.55;;;9.90;71.80;;;;;;5031892;28;20061;-75
2023/11/06 08:24:04;;;;;;;1.60;0.50;;;9.80;71.00;;;;;;5031355;28;20490;-74
2023/11/06 08:26:30;;;;;;;3.25;0.68;;;9.80;71.20;;;;;;5032018;28;20028;-75
2023/11/06 08:28:56;;;;;;;1.63;0.40;;;9.90;71.90;;;;;;5030544;28;20033;-77
2023/11/06 08:31:22;;;;;;;0.85;0.47;;;9.90;70.70;;;;;;5032202;28;20029;-77
2023/11/06 08:33:47;;;;;;;2.63;0.60;;;10.00;70.90;;;;;;5032320;28;20014;-74
2023/11/06 08:36:13;;;;;;;1.92;0.57;;;10.10;70.80;;;;;;5032258;28;20509;-78
2023/11/06 08:38:39;;;;;;;0.85;0.28;;;10.20;69.80;;;;;;5031373;28;20022;-75
2023/11/06 08:41:08;;;;;;;2.80;0.38;;;10.20;69.30;;;;;;5033443;28;20041;-78
2023/11/06 08:43:34;;;;;;;1.08;0.30;;;10.20;69.80;;;;;;5033327;28;20032;-72
2023/11/06 08:46:04;;;;;;;1.10;0.40;;;10.10;68.80;;;;;;5033410;28;20029;-72
2023/11/06 08:48:31;;;;;;;1.02;0.30;;;10.10;68.40;;;;;;5033264;28;20367;-77
2023/11/06 08:50:57;;;;;;;3.75;0.30;;;10.20;68.60;;;;;;5033223;28;20517;-74
2023/11/06 08:53:23;;;;;;;3.55;0.40;;;10.30;68.20;;;;;;5032654;28;20022;-77
2023/11/06 08:55:49;;;;;;;2.35;0.43;;;10.30;68.00;;;;;;5031534;28;20028;-75
2023/11/06 08:58:16;;;;;;;1.75;0.22;;;10.30;68.10;;;;;;5031574;28;20028;-73
2023/11/06 09:00:47;;;;;;;1.05;0.45;;;10.50;68.30;;;;;;5031533;28;20057;-73
2023/11/06 09:03:14;;;;;;;0.77;0.35;;;10.70;66.30;;;;;;5035377;28;20025;-75
2023/11/06 09:05:41;;;;;;;1.55;0.30;;;10.70;67.20;;;;;;5032886;28;20057;-74
2023/11/06 09:08:06;;;;;;;0.85;0.35;;;10.80;65.60;;;;;;5032586;28;20085;-75
2023/11/06 09:10:32;;;;;;;2.63;0.40;;;10.80;65.90;;;;;;5031305;28;20079;-75
2023/11/06 09:12:59;;;;;;;2.30;0.38;;;10.80;66.20;;;;;;5030937;28;20029;-72
2023/11/06 09:15:24;;;;;;;0.65;0.30;;;10.80;65.90;;;;;;5032817;28;20037;-74
2023/11/06 09:17:50;;;;;;;1.63;0.32;;;11.10;65.50;;;;;;5032343;28;20363;-73
2023/11/06 09:20:16;;;;;;;1.25;0.40;;;11.00;65.40;;;;;;5032260;28;20045;-74
2023/11/06 09:22:42;;;;;;;1.50;0.40;;;10.90;65.20;;;;;;5032499;28;20028;-74
2023/11/06 09:25:08;;;;;;;1.42;0.40;;;10.60;66.20;;;;;;5032479;28;20125;-73
2023/11/06 09:27:34;;;;;;;0.98;0.45;;;10.60;67.10;;;;;;5032278;28;20025;-73
2023/11/06 09:30:01;;;;;;;3.00;0.73;;;10.60;67.20;;;;;;5031218;28;20028;-73
2023/11/06 09:32:27;;;;;;;1.75;0.57;;;10.60;68.20;;;;;;5032283;28;20033;-74
2023/11/06 09:34:53;;;;;;;1.13;0.30;;;10.60;68.40;;;;;;5034659;28;20029;-73
2023/11/06 09:37:18;;;;;;;1.73;0.55;;;10.70;68.00;;;;;;5035951;28;20085;-72
2023/11/06 09:39:44;;;;;;;1.33;0.47;;;10.70;68.90;;;;;;5036172;28;20108;-72
2023/11/06 09:42:13;;;;;;;2.28;0.40;;;10.60;68.90;;;;;;5036076;28;20104;-71
2023/11/06 09:44:38;;;;;;;0.93;0.50;;;10.60;67.90;;;;;;5036157;28;20096;-73
2023/11/06 09:47:08;;;;;;;2.58;0.40;;;10.60;68.10;;;;;;5036206;28;20025;-75
2023/11/06 09:50:01;;;;;;;1.58;0.40;;;10.70;68.40;;;;;;5035019;28;20470;-74
2023/11/06 09:52:27;;;;;;;0.95;0.38;;;10.70;67.40;;;;;;5035938;28;20064;-76
2023/11/06 09:54:54;;;;;;;1.17;0.43;;;10.80;68.30;;;;;;5035925;28;20347;-74
2023/11/06 09:57:20;;;;;;;1.85;0.30;;;10.70;67.30;;;;;;5035608;28;20030;-74
2023/11/06 09:59:47;;;;;;;0.85;0.50;;;10.60;67.80;;;;;;5035922;28;20018;-74
2023/11/06 10:02:13;;;;;;;3.83;0.47;;;10.70;67.80;;;;;;5034481;28;20029;-75
2023/11/06 10:04:38;;;;;;;0.63;0.40;;;10.70;67.50;;;;;;5035640;28;20036;-72
2023/11/06 10:07:04;;;;;;;2.45;0.88;;;10.70;68.00;;;;;;5035332;28;20103;-74
2023/11/06 10:09:30;;;;;;;1.33;0.20;;;10.80;68.20;;;;;;5035948;28;20092;-73
2023/11/06 10:12:16;;;;;;;3.45;0.30;;;10.80;67.00;;;;;;5034092;28;20106;-73
2023/11/06 10:14:42;;;;;;;1.27;0.40;;;10.90;66.70;;;;;;5034862;28;20037;-73
2023/11/06 10:17:08;;;;;;;1.23;0.50;;;11.00;67.20;;;;;;5034139;28;20037;-73
2023/11/06 10:19:34;;;;;;;4.35;3.58;;;11.00;66.80;;;;;;5034171;28;20033;-72
2023/11/06 10:22:14;;;;;;;1.52;0.88;;;11.10;66.60;;;;;;5035462;28;20366;-72
2023/11/06 10:24:49;;;;;;;0.93;0.30;;;11.10;67.10;;;;;;5035539;28;20052;-75
2023/11/06 10:27:24;;;;;;;1.42;0.40;;;11.00;65.70;;;;;;5036253;28;20104;-75
2023/11/06 10:30:04;;;;;;;0.88;0.70;;;11.10;65.30;;;;;;5036605;28;20026;-72
2023/11/06 10:32:29;;;;;;;0.88;0.50;;;11.10;65.80;;;;;;5033730;28;20451;-75
2023/11/06 10:35:00;;;;;;;1.33;0.43;;;11.10;65.90;;;;;;5035079;28;20100;-73
2023/11/06 10:37:27;;;;;;;0.90;0.50;;;11.20;66.10;;;;;;5034942;28;20478;-73
2023/11/06 10:39:54;;;;;;;0.65;0.47;;;11.30;66.20;;;;;;5033563;28;20359;-72
2023/11/06 10:42:23;;;;;;;0.65;0.40;;;11.60;64.60;;;;;;5033452;28;20485;-74
2023/11/06 10:44:59;;;;;;;0.80;0.50;;;11.70;64.40;;;;;;5035882;28;20462;-73
2023/11/06 10:47:36;;;;;;;0.40;0.20;;;12.00;64.30;;;;;;5033989;28;20443;-72
2023/11/06 10:50:07;;;;;;;1.20;0.40;;;12.10;62.30;;;;;;5034873;28;20336;-72
2023/11/06 10:52:38;;;;;;;2.30;0.40;;;12.10;61.40;;;;;;5033367;28;20041;-74
2023/11/06 10:55:06;;;;;;;1.83;0.25;;;12.00;62.40;;;;;;5033533;28;20055;-76
2023/11/06 10:57:33;;;;;;;1.70;0.40;;;12.00;62.40;;;;;;5034925;28;20033;-75
2023/11/06 11:00:07;;;;;;;1.58;0.73;;;11.90;62.20;;;;;;5033126;28;20382;-75
2023/11/06 11:02:53;;;;;;;0.53;0.30;;;11.80;63.10;;;;;;5034715;28;20029;-75
2023/11/06 11:05:24;;;;;;;2.13;0.65;;;11.70;62.50;;;;;;5034563;28;20299;-75
2023/11/06 11:07:51;;;;;;;2.50;0.65;;;11.60;63.20;;;;;;5034473;28;20540;-74
2023/11/06 11:10:19;;;;;;;3.38;0.63;;;11.60;62.80;;;;;;5034481;28;20044;-75
2023/11/06 11:12:51;;;;;;;1.45;0.60;;;11.70;63.40;;;;;;5034617;28;20074;-74
2023/11/06 11:15:27;;;;;;;1.92;0.40;;;11.70;63.30;;;;;;5034388;28;20541;-73
2023/11/06 11:18:05;;;;;;;0.70;0.40;;;11.80;63.40;;;;;;5033313;28;20056;-75
2023/11/06 11:20:59;;;;;;;1.60;0.75;;;11.90;63.10;;;;;;5034311;28;20624;-75
2023/11/06 11:23:42;;;;;;;2.63;0.40;;;12.10;62.30;;;;;;5034633;28;20079;-77
2023/11/06 11:26:11;;;;;;;1.98;0.45;;;12.10;62.30;;;;;;5034283;28;20086;-77
2023/11/06 11:28:57;;;;;;;1.60;0.90;;;12.10;61.60;;;;;;5034894;28;20022;-79
2023/11/06 11:31:39;;;;;;;1.42;0.40;;;12.10;61.10;;;;;;5034395;28;20033;-76
2023/11/06 11:34:06;;;;;;;3.60;0.40;;;12.10;61.10;;;;;;5034795;28;20034;-76
2023/11/06 11:36:34;;;;;;;0.43;0.20;;;12.10;60.90;;;;;;5034023;28;20029;-78
2023/11/06 11:39:13;;;;;;;1.60;0.32;;;12.10;59.40;;;;;;5034516;28;20211;-77
2023/11/06 11:41:59;;;;;;;2.33;0.32;;;12.10;59.50;;;;;;5034256;28;20025;-71
2023/11/06 11:44:25;;;;;;;1.15;0.50;;;11.90;60.40;;;;;;5034162;28;20060;-75
2023/11/06 11:46:50;;;;;;;2.65;0.70;;;12.10;60.70;;;;;;5034442;28;20033;-78
2023/11/06 11:49:48;;;;;;;10.48;7.45;;;12.60;58.70;;;;;;5034512;28;20089;-79
2023/11/06 11:52:24;;;;;;;2.28;0.75;;;12.60;58.60;;;;;;5034229;28;20018;-77
2023/11/06 11:54:50;;;;;;;1.58;0.50;;;12.40;58.60;;;;;;5039162;28;20021;-76
2023/11/06 11:57:16;;;;;;;0.52;0.32;;;12.10;59.80;;;;;;5031674;28;20041;-77
2023/11/06 11:59:49;;;;;;;2.42;0.52;;;12.00;60.60;;;;;;5011325;28;20046;-77
2023/11/06 12:02:27;;;;;;;0.73;0.50;;;11.90;61.10;;;;;;5004715;28;20586;-79
2023/11/06 12:04:59;;;;;;;2.47;0.88;;;11.80;61.00;;;;;;4998223;28;20069;-76
2023/11/06 12:07:28;;;;;;;1.50;0.50;;;11.80;61.10;;;;;;4993239;28;20506;-76
2023/11/06 12:09:57;;;;;;;2.67;0.70;;;11.70;61.40;;;;;;5000838;28;20074;-77
2023/11/06 12:12:29;;;;;;;1.38;0.57;;;11.70;61.80;;;;;;5016589;28;20022;-76
2023/11/06 12:14:57;;;;;;;2.90;1.85;;;11.60;62.30;;;;;;5000989;28;20027;-76
2023/11/06 12:17:41;;;;;;;2.00;0.43;;;11.60;62.40;;;;;;5002149;28;20120;-75
2023/11/06 12:20:09;;;;;;;1.73;0.80;;;11.50;63.90;;;;;;5019289;28;20061;-75
2023/11/06 12:22:47;;;;;;;1.30;0.55;;;11.50;66.20;;;;;;5003320;28;20045;-76
2023/11/06 12:25:16;;;;;;;1.02;0.70;;;11.40;68.00;;;;;;5003354;28;20019;-77
2023/11/06 12:27:41;;;;;;;1.65;0.60;;;11.40;67.80;;;;;;5010262;28;20053;-78
2023/11/06 12:30:09;;;;;;;1.50;0.60;;;11.30;68.80;;;;;;5013394;28;20061;-77
2023/11/06 12:32:36;;;;;;;1.60;0.25;;;11.20;69.70;;;;;;5012132;28;20022;-78
2023/11/06 12:35:19;;;;;;;1.77;0.40;;;11.20;70.90;;;;;;5012550;28;20029;-77
2023/11/06 12:37:55;;;;;;;0.73;0.30;;;11.10;70.80;;;;;;5012939;28;20038;-76
2023/11/06 12:40:27;;;;;;;0.73;0.32;;;11.00;72.30;;;;;;5012125;28;20021;-76
2023/11/06 12:42:54;;;;;;;2.10;0.40;;;11.00;72.80;;;;;;5012023;28;20037;-78
2023/11/06 12:45:27;;;;;;;0.30;0.28;;;10.90;73.70;;;;;;5012287;28;20022;-75
2023/11/06 12:47:53;;;;;;;2.28;0.30;;;10.90;72.70;;;;;;5012692;28;20022;-77
2023/11/06 12:50:19;;;;;;;1.90;0.75;;;11.10;72.60;;;;;;5011809;28;20036;-76
2023/11/06 12:52:45;;;;;;;2.22;0.98;;;11.20;72.80;;;;;;5012267;28;20379;-77
2023/11/06 12:55:28;;;;;;;5.35;3.15;;;11.30;72.60;;;;;;5011880;28;20072;-76
2023/11/06 12:58:02;;;;;;;2.17;0.60;;;11.40;72.00;;;;;;5012911;28;20033;-75
2023/11/06 13:00:29;;;;;;;1.88;0.40;;;11.90;69.90;;;;;;5012796;28;20033;-76